PWSweather.com
Personal Weather Stations
Station Observations
ZOETERMEER
Zuidholland, ZoetermeerNL

ZuidhollandZoetermeerNL

Lat: 52.072, Lon: 4.511

Elevation: -4

Station Type: Davis VantagePro 2 Plus

http://www.weerzoetermeer.nl

Latest ConditionsUpdated 9:10:00 AM GMT+01:01 Monday, Nov 19, 2018
Currently Today's Max Today's Min Today's Average
Temperature 42.0°F5.6°C 42.0°F5.6°C 39.2°F4.0°C 40.5°F4.7°C
Dew Point 38.5°F3.6°C 38.9°F3.8°C 36.2°F2.3°C 37.5°F3.1°C
Winds 6.9 mph ENE11.1 kmh ENE 10.4 mph -16.7 kmh - - 5.9 mph 9.5 kmh
Wind Gusts 15.0 mph24.1 kmh 16.1 mph25.9 kmh - -
Humidity 87% 92% 87% 89%
Pressure 30.22 in1023.4 mb 30.33 in1027.1 mb 30.22 in1023.4 mb -
Hour Temp Dew Point Humidity Winds Wind Gusts Pressure Precip Precip Rate Daily Precip Total
09:10 AM 42.0°F5.6°C 38.5°F3.6°C 87% 6.9 mph ENE11.1 kmh ENE 15.0 mph24.1 kmh 30.22 in1023.4 mb - 0.00 in0.0 mm 0.00 in0.0 mm
09:00 AM 41.9°F5.5°C 38.6°F3.7°C 88% 9.2 mph NE14.8 kmh NE 15.0 mph24.1 kmh 30.22 in1023.4 mb - 0.00 in0.0 mm 0.00 in0.0 mm
08:50 AM 41.8°F5.4°C 38.5°F3.6°C 88% 5.8 mph NNE9.3 kmh NNE 11.5 mph18.5 kmh 30.23 in1023.7 mb - 0.00 in0.0 mm 0.00 in0.0 mm
08:40 AM 41.6°F5.3°C 38.3°F3.5°C 88% 4.6 mph NE7.4 kmh NE 5.8 mph9.3 kmh 30.23 in1023.7 mb - 0.00 in0.0 mm 0.00 in0.0 mm
08:30 AM 41.5°F5.3°C 38.2°F3.4°C 88% 4.6 mph NE7.4 kmh NE 4.6 mph7.4 kmh 30.23 in1023.7 mb - 0.00 in0.0 mm 0.00 in0.0 mm
08:20 AM 41.5°F5.3°C 38.2°F3.4°C 88% 8.1 mph NE13.0 kmh NE 8.1 mph13.0 kmh 30.23 in1023.7 mb - 0.00 in0.0 mm 0.00 in0.0 mm
08:10 AM 41.4°F5.2°C 38.1°F3.4°C 88% 6.9 mph NE11.1 kmh NE 10.4 mph16.7 kmh 30.23 in1023.7 mb - 0.00 in0.0 mm 0.00 in0.0 mm
08:00 AM 41.3°F5.2°C 38.0°F3.3°C 88% 8.1 mph NE13.0 kmh NE 13.8 mph22.2 kmh 30.23 in1023.7 mb - 0.00 in0.0 mm 0.00 in0.0 mm
07:50 AM 41.1°F5.1°C 37.8°F3.2°C 88% 8.1 mph NE13.0 kmh NE 11.5 mph18.5 kmh 30.23 in1023.7 mb - 0.00 in0.0 mm 0.00 in0.0 mm
07:40 AM 41.0°F5.0°C 37.7°F3.2°C 88% 5.8 mph NE9.3 kmh NE 11.5 mph18.5 kmh 30.23 in1023.7 mb - 0.00 in0.0 mm 0.00 in0.0 mm
07:30 AM 40.9°F4.9°C 37.6°F3.1°C 88% 5.8 mph NE9.3 kmh NE 9.2 mph14.8 kmh 30.23 in1023.7 mb - 0.00 in0.0 mm 0.00 in0.0 mm
07:20 AM 40.7°F4.8°C 37.5°F3.1°C 88% 6.9 mph NE11.1 kmh NE 11.5 mph18.5 kmh 30.23 in1023.7 mb - 0.00 in0.0 mm 0.00 in0.0 mm
07:10 AM 40.9°F4.9°C 37.6°F3.1°C 88% 3.5 mph ENE5.6 kmh ENE 11.5 mph18.5 kmh 30.23 in1023.7 mb - 0.00 in0.0 mm 0.00 in0.0 mm
07:00 AM 41.0°F5.0°C 37.7°F3.2°C 88% 5.8 mph NE9.3 kmh NE 9.2 mph14.8 kmh 30.23 in1023.7 mb - 0.00 in0.0 mm 0.00 in0.0 mm
06:50 AM 41.2°F5.1°C 38.2°F3.4°C 89% 4.6 mph NE7.4 kmh NE 8.1 mph13.0 kmh 30.24 in1024.0 mb - 0.00 in0.0 mm 0.00 in0.0 mm
06:40 AM 41.3°F5.2°C 38.3°F3.5°C 89% 5.8 mph ENE9.3 kmh ENE 11.5 mph18.5 kmh 30.24 in1024.0 mb - 0.00 in0.0 mm 0.00 in0.0 mm
06:30 AM 41.1°F5.1°C 38.1°F3.4°C 89% 5.8 mph NE9.3 kmh NE 6.9 mph11.1 kmh 30.24 in1024.0 mb - 0.00 in0.0 mm 0.00 in0.0 mm
06:20 AM 41.1°F5.1°C 38.1°F3.4°C 89% 4.6 mph ENE7.4 kmh ENE 10.4 mph16.7 kmh 30.25 in1024.4 mb - 0.00 in0.0 mm 0.00 in0.0 mm
06:10 AM 41.1°F5.1°C 38.1°F3.4°C 89% 5.8 mph NE9.3 kmh NE 11.5 mph18.5 kmh 30.25 in1024.4 mb - 0.00 in0.0 mm 0.00 in0.0 mm
06:00 AM 41.0°F5.0°C 38.0°F3.3°C 89% 4.6 mph NE7.4 kmh NE 9.2 mph14.8 kmh 30.25 in1024.4 mb - 0.00 in0.0 mm 0.00 in0.0 mm
05:50 AM 40.9°F4.9°C 38.2°F3.4°C 90% 8.1 mph NE13.0 kmh NE 11.5 mph18.5 kmh 30.25 in1024.4 mb - 0.00 in0.0 mm 0.00 in0.0 mm
05:40 AM 40.9°F4.9°C 38.2°F3.4°C 90% 5.8 mph NE9.3 kmh NE 9.2 mph14.8 kmh 30.25 in1024.4 mb - 0.00 in0.0 mm 0.00 in0.0 mm
05:30 AM 40.8°F4.9°C 37.8°F3.2°C 89% 4.6 mph ENE7.4 kmh ENE 9.2 mph14.8 kmh 30.26 in1024.7 mb - 0.00 in0.0 mm 0.00 in0.0 mm
05:20 AM 40.8°F4.9°C 37.8°F3.2°C 89% 9.2 mph ENE14.8 kmh ENE 16.1 mph25.9 kmh 30.26 in1024.7 mb - 0.00 in0.0 mm 0.00 in0.0 mm
05:10 AM 40.9°F4.9°C 37.9°F3.3°C 89% 6.9 mph ENE11.1 kmh ENE 12.7 mph20.4 kmh 30.26 in1024.7 mb - 0.00 in0.0 mm 0.00 in0.0 mm
05:00 AM 40.9°F4.9°C 37.9°F3.3°C 89% 8.1 mph ENE13.0 kmh ENE 11.5 mph18.5 kmh 30.27 in1025.1 mb - 0.00 in0.0 mm 0.00 in0.0 mm
04:50 AM 40.9°F4.9°C 37.9°F3.3°C 89% 4.6 mph NE7.4 kmh NE 9.2 mph14.8 kmh 30.27 in1025.1 mb - 0.00 in0.0 mm 0.00 in0.0 mm
04:40 AM 41.0°F5.0°C 38.9°F3.8°C 92% 6.9 mph ENE11.1 kmh ENE 12.7 mph20.4 kmh 30.26 in1024.7 mb - 0.00 in0.0 mm 0.00 in0.0 mm
04:30 AM 40.8°F4.9°C 37.8°F3.2°C 89% 10.4 mph NE16.7 kmh NE 13.8 mph22.2 kmh 30.27 in1025.1 mb - 0.00 in0.0 mm 0.00 in0.0 mm
04:20 AM 40.6°F4.8°C 37.6°F3.1°C 89% 6.9 mph NE11.1 kmh NE 11.5 mph18.5 kmh 30.27 in1025.1 mb - 0.00 in0.0 mm 0.00 in0.0 mm
04:10 AM 40.2°F4.6°C 37.5°F3.1°C 90% 6.9 mph ENE11.1 kmh ENE 11.5 mph18.5 kmh 30.27 in1025.1 mb - 0.00 in0.0 mm 0.00 in0.0 mm
04:00 AM 39.9°F4.4°C 37.2°F2.9°C 90% 3.5 mph ENE5.6 kmh ENE 8.1 mph13.0 kmh 30.27 in1025.1 mb - 0.00 in0.0 mm 0.00 in0.0 mm
03:50 AM 39.6°F4.2°C 36.9°F2.7°C 90% 5.8 mph ENE9.3 kmh ENE 10.4 mph16.7 kmh 30.27 in1025.1 mb - 0.00 in0.0 mm 0.00 in0.0 mm
03:40 AM 39.5°F4.2°C 36.8°F2.7°C 90% 5.8 mph NE9.3 kmh NE 11.5 mph18.5 kmh 30.28 in1025.4 mb - 0.00 in0.0 mm 0.00 in0.0 mm
03:30 AM 39.5°F4.2°C 36.8°F2.7°C 90% 6.9 mph ENE11.1 kmh ENE 11.5 mph18.5 kmh 30.29 in1025.7 mb - 0.00 in0.0 mm 0.00 in0.0 mm
03:20 AM 39.5°F4.2°C 36.8°F2.7°C 90% 5.8 mph NE9.3 kmh NE 6.9 mph11.1 kmh 30.29 in1025.7 mb - 0.00 in0.0 mm 0.00 in0.0 mm
03:10 AM 39.5°F4.2°C 36.8°F2.7°C 90% 6.9 mph NE11.1 kmh NE 11.5 mph18.5 kmh 30.29 in1025.7 mb - 0.00 in0.0 mm 0.00 in0.0 mm
03:00 AM 39.5°F4.2°C 36.8°F2.7°C 90% 5.8 mph NE9.3 kmh NE 11.5 mph18.5 kmh 30.29 in1025.7 mb - 0.00 in0.0 mm 0.00 in0.0 mm
02:50 AM 39.5°F4.2°C 36.8°F2.7°C 90% 3.5 mph ENE5.6 kmh ENE 9.2 mph14.8 kmh 30.29 in1025.7 mb - 0.00 in0.0 mm 0.00 in0.0 mm
02:40 AM 39.5°F4.2°C 36.8°F2.7°C 90% 5.8 mph NE9.3 kmh NE 9.2 mph14.8 kmh 30.29 in1025.7 mb - 0.00 in0.0 mm 0.00 in0.0 mm
02:30 AM 39.4°F4.1°C 36.4°F2.4°C 89% 4.6 mph NE7.4 kmh NE 5.8 mph9.3 kmh 30.29 in1025.7 mb - 0.00 in0.0 mm 0.00 in0.0 mm
02:20 AM 39.2°F4.0°C 36.2°F2.3°C 89% 4.6 mph NE7.4 kmh NE 6.9 mph11.1 kmh 30.30 in1026.1 mb - 0.00 in0.0 mm 0.00 in0.0 mm
02:10 AM 39.2°F4.0°C 36.2°F2.3°C 89% 4.6 mph NE7.4 kmh NE 5.8 mph9.3 kmh 30.30 in1026.1 mb - 0.00 in0.0 mm 0.00 in0.0 mm
02:00 AM 39.5°F4.2°C 36.5°F2.5°C 89% 3.5 mph ENE5.6 kmh ENE 9.2 mph14.8 kmh 30.30 in1026.1 mb - 0.00 in0.0 mm 0.00 in0.0 mm
01:50 AM 39.6°F4.2°C 36.6°F2.6°C 89% 4.6 mph NE7.4 kmh NE 4.6 mph7.4 kmh 30.30 in1026.1 mb - 0.00 in0.0 mm 0.00 in0.0 mm
01:40 AM 39.9°F4.4°C 36.6°F2.6°C 88% 2.3 mph NE3.7 kmh NE 4.6 mph7.4 kmh 30.30 in1026.1 mb - 0.00 in0.0 mm 0.00 in0.0 mm
01:30 AM 40.3°F4.6°C 37.0°F2.8°C 88% 5.8 mph ENE9.3 kmh ENE 9.2 mph14.8 kmh 30.31 in1026.4 mb - 0.00 in0.0 mm 0.00 in0.0 mm
01:20 AM 40.5°F4.7°C 37.2°F2.9°C 88% 4.6 mph ENE7.4 kmh ENE 9.2 mph14.8 kmh 30.32 in1026.8 mb - 0.00 in0.0 mm 0.00 in0.0 mm
01:10 AM 40.4°F4.7°C 37.1°F2.8°C 88% 6.9 mph ENE11.1 kmh ENE 15.0 mph24.1 kmh 30.32 in1026.8 mb - 0.00 in0.0 mm 0.00 in0.0 mm
01:00 AM 40.4°F4.7°C 37.1°F2.8°C 88% 3.5 mph ENE5.6 kmh ENE 4.6 mph7.4 kmh 30.32 in1026.8 mb - 0.00 in0.0 mm 0.00 in0.0 mm
12:50 AM 40.4°F4.7°C 37.1°F2.8°C 88% 5.8 mph NE9.3 kmh NE 13.8 mph22.2 kmh 30.32 in1026.8 mb - 0.00 in0.0 mm 0.00 in0.0 mm
12:40 AM 40.4°F4.7°C 37.1°F2.8°C 88% 4.6 mph E7.4 kmh E 6.9 mph11.1 kmh 30.33 in1027.1 mb - 0.00 in0.0 mm 0.00 in0.0 mm
12:30 AM 40.2°F4.6°C 36.9°F2.7°C 88% 8.1 mph E13.0 kmh E 11.5 mph18.5 kmh 30.33 in1027.1 mb - 0.00 in0.0 mm 0.00 in0.0 mm
12:20 AM 39.9°F4.4°C 36.3°F2.4°C 87% 5.8 mph E9.3 kmh E 8.1 mph13.0 kmh 30.33 in1027.1 mb - 0.00 in0.0 mm 0.00 in0.0 mm
12:10 AM 40.0°F4.4°C 36.4°F2.4°C 87% 5.8 mph ENE9.3 kmh ENE 8.1 mph13.0 kmh 30.33 in1027.1 mb - 0.00 in0.0 mm 0.00 in0.0 mm
12:00 AM 40.3°F4.6°C 36.7°F2.6°C 87% 8.1 mph ENE13.0 kmh ENE 15.0 mph24.1 kmh 30.33 in1027.1 mb - 0.00 in0.0 mm 0.00 in0.0 mm